• Join FlightAware (Why Join?)
  • Login
  • US Flag 
09:22AM EDT


 

Airport Tracker/Info


-or-


 

Live Flight TrackerFlight Track Log ✈ N5626Y ✈ 19-Apr-2013 ✈ KFAR - KLOT

Flight Track Log - Related Links

Times and Time Zones

All times are in EDT time to prevent confusion due to time zone crossing. See the N5626Y flight status page for this flight to view local times or setup timezone preferences in your user account.

Time Position Orientation Groundspeed Altitude Reporting Facility
EDT Latitude Longitude Course Direction KTS MPH feet Rate Location/Type
11:57PM 46.9197 -96.8558 162° South 177 204 2,000  Level Minneapolis Center
11:58PM 46.8708 -96.8331 162° South 201 231 4,100 1,980 Climbing Minneapolis Center
11:59PM 46.8386 -96.7700 127° Southeast 202 232 6,100 2,100 Climbing Minneapolis Center
12:00AM 46.8019 -96.7017 128° Southeast 205 236 8,400 2,160 Climbing Minneapolis Center
12:01AM 46.7661 -96.6325 127° Southeast 204 235 10,600 2,040 Climbing Minneapolis Center
12:02AM 46.7314 -96.5658 127° Southeast 212 244 12,600 2,040 Climbing Minneapolis Center
12:03AM 46.6919 -96.4911 128° Southeast 222 255 14,800 2,040 Climbing Minneapolis Center
12:04AM 46.6528 -96.4186 128° Southeast 233 268 16,800 1,800 Climbing Minneapolis Center
12:05AM 46.6083 -96.3358 128° Southeast 247 284 18,500 1,620 Climbing Minneapolis Center
12:06AM 46.5639 -96.2533 128° Southeast 255 293 20,100 1,380 Climbing Minneapolis Center
12:07AM 46.5164 -96.1650 128° Southeast 271 312 21,400 1,260 Climbing Minneapolis Center
12:08AM 46.4658 -96.0753 129° Southeast 284 327 22,700 1,140 Climbing Minneapolis Center
12:09AM 46.4147 -95.9811 128° Southeast 293 337 23,800 1,020 Climbing Minneapolis Center
12:10AM 46.3625 -95.8847 128° Southeast 301 346 24,800 540 Climbing Minneapolis Center
12:11AM 46.3094 -95.7883 129° Southeast 316 364 25,000 60 Climbing Minneapolis Center
12:12AM 46.2475 -95.6758 129° Southeast 350 403 25,000  Level Minneapolis Center
12:13AM 46.1836 -95.5597 128° Southeast 365 420 25,000  Level Minneapolis Center
12:14AM 46.1053 -95.4189 129° Southeast 375 432 25,000  Level Minneapolis Center
12:15AM 46.0408 -95.3047 129° Southeast 370 426 25,000  Level Minneapolis Center
12:16AM 45.9756 -95.1875 129° Southeast 374 430 25,000  Level Minneapolis Center
12:17AM 45.9114 -95.0733 129° Southeast 369 425 25,000  Level Minneapolis Center
12:18AM 45.8419 -94.9508 129° Southeast 376 433 25,000  Level Minneapolis Center
12:19AM 45.7775 -94.8375 129° Southeast 369 425 25,000  Level Minneapolis Center
12:20AM 45.7117 -94.7222 129° Southeast 374 430 25,000  Level Minneapolis Center
12:21AM 45.6456 -94.6064 129° Southeast 377 434 25,000  Level Minneapolis Center
12:22AM 45.5792 -94.4919 130° Southeast 376 433 25,000  Level Minneapolis Center
12:23AM 45.5128 -94.3767 129° Southeast 378 435 25,000  Level Minneapolis Center
12:24AM 45.4464 -94.2625 130° Southeast 377 434 25,000  Level Minneapolis Center
12:25AM 45.3803 -94.1483 129° Southeast 375 432 25,000  Level Minneapolis Center
12:26AM 45.3153 -94.0361 129° Southeast 372 428 25,000  Level Minneapolis Center
12:27AM 45.2494 -93.9236 130° Southeast 371 427 25,000  Level Minneapolis Center
12:28AM 45.1844 -93.8136 130° Southeast 368 423 25,000  Level Minneapolis Center
12:29AM 45.1189 -93.7025 130° Southeast 367 422 25,000  Level Minneapolis Center
12:30AM 45.0531 -93.5919 130° Southeast 368 423 25,000  Level Minneapolis Center
12:31AM 44.9878 -93.4822 130° Southeast 368 423 25,000  Level Minneapolis Center
12:32AM 44.9225 -93.3739 130° Southeast 365 420 25,000  Level Minneapolis Center
12:33AM 44.8569 -93.2661 131° Southeast 362 417 25,000  Level Minneapolis Center
12:35AM 44.7853 -93.1500 131° Southeast 358 412 25,000  Level Minneapolis Center
12:36AM 44.7261 -93.0483 129° Southeast 354 407 25,000  Level Minneapolis Center
12:37AM 44.6481 -92.9200 131° Southeast 357 411 25,000  Level Minneapolis Center
12:38AM 44.5833 -92.8150 131° Southeast 356 410 25,000  Level Minneapolis Center
12:39AM 44.5192 -92.7114 131° Southeast 354 407 25,000  Level Minneapolis Center
12:40AM 44.4436 -92.5881 131° Southeast 349 402 25,000  Level Minneapolis Center
12:41AM 44.3797 -92.4856 131° Southeast 350 403 25,000  Level Minneapolis Center
12:42AM 44.3172 -92.3831 130° Southeast 350 403 25,000  Level Minneapolis Center
12:43AM 44.2539 -92.2806 131° Southeast 350 403 25,000  Level Minneapolis Center
12:44AM 44.1903 -92.1811 132° Southeast 346 398 25,000  Level Minneapolis Center
12:45AM 44.1264 -92.0792 131° Southeast 348 400 25,000  Level Minneapolis Center
12:46AM 44.0628 -91.9772 131° Southeast 350 403 25,000  Level Minneapolis Center
12:47AM 43.9994 -91.8769 131° Southeast 348 400 25,000  Level Minneapolis Center
12:48AM 43.9356 -91.7764 131° Southeast 348 400 25,000  Level Minneapolis Center
12:49AM 43.8719 -91.6764 131° Southeast 346 398 25,000  Level Minneapolis Center
12:50AM 43.8075 -91.5756 132° Southeast 348 400 25,000  Level Minneapolis Center
12:51AM 43.7447 -91.4761 131° Southeast 348 400 25,000  Level Minneapolis Center
12:52AM 43.6814 -91.3767 131° Southeast 347 399 25,000  Level Minneapolis Center
12:53AM 43.6164 -91.2775 132° Southeast 348 400 25,000  Level Minneapolis Center
12:54AM 43.5533 -91.1794 132° Southeast 346 398 25,000  Level Minneapolis Center
12:55AM 43.4889 -91.0806 132° Southeast 347 399 25,000  Level Minneapolis Center
12:56AM 43.4267 -90.9797 130° Southeast 347 399 25,000  Level Minneapolis Center
12:57AM 43.3661 -90.8781 129° Southeast 346 398 25,000  Level Minneapolis Center
12:58AM 43.3039 -90.7750 130° Southeast 348 400 25,000  Level Minneapolis Center
12:59AM 43.2422 -90.6731 130° Southeast 349 402 25,000  Level Minneapolis Center
01:00AM 43.1944 -90.5936 130° Southeast 346 398 25,000  Level Chicago Center
01:01AM 43.1314 -90.4917 130° Southeast 349 402 25,000  Level Chicago Center
01:02AM 43.0697 -90.3903 130° Southeast 349 402 25,000  Level Chicago Center
01:03AM 43.0081 -90.2900 130° Southeast 347 399 25,000  Level Chicago Center
01:04AM 42.9467 -90.1897 130° Southeast 346 398 25,000  Level Chicago Center
01:05AM 42.8842 -90.0894 130° Southeast 348 400 25,000 -300 Level Chicago Center
01:06AM 42.8233 -89.9883 129° Southeast 347 399 24,500 -960 Descending Chicago Center
01:07AM 42.7503 -89.8711 130° Southeast 363 418 23,100 -1,380 Descending Chicago Center
01:08AM 42.6819 -89.7631 131° Southeast 374 430 21,800 -1,380 Descending Chicago Center
01:09AM 42.6156 -89.6575 130° Southeast 368 423 20,400 -1,380 Descending Chicago Center
01:10AM 42.5500 -89.5525 130° Southeast 362 417 19,100 -1,320 Descending Chicago Center
01:11AM 42.4858 -89.4519 131° Southeast 356 410 17,800 -1,380 Descending Chicago Center
01:12AM 42.4222 -89.3506 130° Southeast 355 409 16,400 -1,320 Descending Chicago Center
01:13AM 42.3589 -89.2517 131° Southeast 350 403 15,200 -1,260 Descending Chicago Center
01:14AM 42.2992 -89.1581 131° Southeast 332 382 13,900 -1,320 Descending Chicago Center
01:15AM 42.2392 -89.0656 131° Southeast 327 376 12,600 -1,320 Descending Chicago Center
01:16AM 42.1806 -88.9731 131° Southeast 326 375 11,300 -1,320 Descending Chicago Center
01:17AM 42.1211 -88.8822 131° Southeast 323 372 10,000 -1,320 Descending Chicago Center
01:18AM 42.0658 -88.7953 131° Southeast 313 360 8,700 -1,320 Descending Chicago Center
01:19AM 42.0094 -88.7072 131° Southeast 311 358 7,400 -1,380 Descending Chicago Center
01:20AM 41.9561 -88.6261 131° Southeast 296 341 6,000 -1,380 Descending Chicago Center
01:21AM 41.9033 -88.5458 131° Southeast 289 333 4,700 -1,020 Descending Chicago Center
01:22AM 41.8506 -88.4672 132° Southeast 286 329 4,000 -720 Descending Chicago Center
01:23AM 41.8044 -88.3958 131° Southeast 270 311 3,300 -540 Descending Chicago Center
01:24AM 41.7614 -88.3300 131° Southeast 253 291 3,000 -480 Descending Chicago Center
01:25AM 41.7147 -88.2581 131° Southeast 250 288 2,400 -300 Descending Chicago Center
01:26AM 41.6653 -88.1844 132° Southeast 258 297 2,400  Level Chicago Center
01:27AM 41.6214 -88.1328 139° Southeast 224 258 2,400 -180 Level Chicago Center
01:28AM 41.5842 -88.0861 137° Southeast 200 230 2,100 -300 Descending Chicago Center
01:29AM 41.5992 -88.0342 69° East 183 211 1,800 -300 Descending Chicago Center